Time;durP1;ratioP1;P1;durP2;ratioP2;P2;SDS_P1;SDS_P2;PMS_P1;PMS_P2;Temp;Humidity;BMP_temperature;BMP_pressure;BME280_temperature;BME280_humidity;BME280_pressure;Samples;Min_cycle;Max_cycle;Signal;HPM_P1;HPM_P2
2021/06/26 00:00:31;;;;;;;14.13;12.73;;;16.00;99.90;;;;;;4975649;28;20518;-91
2021/06/26 00:02:57;;;;;;;14.47;13.00;;;16.00;99.90;;;;;;4996219;28;20873;-91
2021/06/26 00:05:23;;;;;;;15.03;13.00;;;16.00;99.90;;;;;;4978748;28;20192;-90
2021/06/26 00:07:48;;;;;;;15.23;13.73;;;16.00;99.90;;;;;;4964983;28;20741;-91
2021/06/26 00:10:16;;;;;;;16.40;14.40;;;16.00;99.90;;;;;;4981131;28;20208;-90
2021/06/26 00:12:41;;;;;;;16.60;14.90;;;15.90;99.90;;;;;;4993557;28;20231;-91
2021/06/26 00:15:10;;;;;;;15.23;13.73;;;15.90;99.90;;;;;;4978012;28;20442;-92
2021/06/26 00:17:36;;;;;;;15.03;13.60;;;16.00;99.90;;;;;;4981282;28;20213;-91
2021/06/26 00:20:02;;;;;;;16.73;15.00;;;16.00;99.90;;;;;;4975864;28;20439;-91
2021/06/26 00:22:28;;;;;;;15.40;13.90;;;16.00;99.90;;;;;;4980253;28;20294;-91
2021/06/26 00:24:54;;;;;;;15.57;14.00;;;16.00;99.90;;;;;;4976794;28;20538;-91
2021/06/26 00:27:19;;;;;;;14.47;12.97;;;16.10;99.90;;;;;;4987984;28;20220;-91
2021/06/26 00:29:45;;;;;;;15.37;13.77;;;16.10;99.90;;;;;;4973742;28;20243;-91
2021/06/26 00:32:11;;;;;;;14.90;13.40;;;16.10;99.90;;;;;;4974836;28;20240;-90
2021/06/26 00:34:36;;;;;;;15.00;12.50;;;16.10;99.90;;;;;;4980982;28;22535;-91
2021/06/26 00:37:02;;;;;;;17.37;12.50;;;16.00;99.90;;;;;;4976914;28;20580;-90
2021/06/26 00:39:28;;;;;;;18.70;13.77;;;16.00;99.90;;;;;;4977260;28;20189;-91
2021/06/26 00:41:53;;;;;;;14.87;13.47;;;16.00;99.90;;;;;;4982897;28;20215;-90
2021/06/26 00:44:19;;;;;;;15.90;13.07;;;15.90;99.90;;;;;;4977076;28;20252;-90
2021/06/26 00:46:45;;;;;;;15.03;13.57;;;15.90;99.90;;;;;;4977715;28;20823;-91
2021/06/26 00:49:10;;;;;;;14.50;13.20;;;15.90;99.90;;;;;;4981165;28;20412;-92
2021/06/26 00:51:36;;;;;;;14.70;13.30;;;15.90;99.90;;;;;;4979997;28;20303;-92
2021/06/26 00:54:02;;;;;;;13.40;12.20;;;15.90;99.90;;;;;;4977714;28;20668;-90
2021/06/26 00:56:28;;;;;;;14.27;12.87;;;15.90;99.90;;;;;;4979653;28;20559;-91
2021/06/26 00:58:55;;;;;;;13.57;12.27;;;15.90;99.90;;;;;;4995893;28;20467;-91
2021/06/26 01:01:25;;;;;;;13.63;12.20;;;15.90;99.90;;;;;;4995135;28;21845;-91
2021/06/26 01:03:51;;;;;;;13.90;12.43;;;15.90;99.90;;;;;;4976175;28;20440;-91
2021/06/26 01:06:16;;;;;;;14.97;12.57;;;15.80;99.90;;;;;;4978035;28;22864;-91
2021/06/26 01:08:42;;;;;;;14.77;13.17;;;15.80;99.90;;;;;;4995053;28;20207;-91
2021/06/26 01:11:08;;;;;;;14.17;12.67;;;15.80;99.90;;;;;;4974128;28;20275;-91
2021/06/26 01:13:35;;;;;;;14.20;12.80;;;15.80;99.90;;;;;;4979179;28;20448;-91
2021/06/26 01:16:00;;;;;;;13.57;12.20;;;15.90;99.90;;;;;;4973816;28;20189;-90
2021/06/26 01:18:26;;;;;;;14.63;13.13;;;15.80;99.90;;;;;;4976665;28;20487;-91
2021/06/26 01:20:52;;;;;;;14.83;13.23;;;15.80;99.90;;;;;;4990245;28;20188;-91
2021/06/26 01:23:19;;;;;;;15.10;13.57;;;15.80;99.90;;;;;;4995574;28;20192;-91
2021/06/26 01:25:45;;;;;;;14.13;12.63;;;15.80;99.90;;;;;;4973921;28;20460;-91
2021/06/26 01:28:12;;;;;;;13.27;11.90;;;15.80;99.90;;;;;;4975040;28;20719;-91
2021/06/26 01:30:38;;;;;;;13.30;11.87;;;15.80;99.90;;;;;;4977377;28;20193;-90
2021/06/26 01:33:05;;;;;;;14.63;13.23;;;15.80;99.90;;;;;;4976156;28;21044;-91
2021/06/26 01:35:30;;;;;;;14.27;12.80;;;15.70;99.90;;;;;;4976207;28;20452;-91
2021/06/26 01:37:57;;;;;;;14.90;12.53;;;15.60;99.90;;;;;;4992641;28;20448;-91
2021/06/26 01:40:25;;;;;;;14.73;13.20;;;15.50;99.90;;;;;;4976905;28;20215;-91
2021/06/26 01:42:52;;;;;;;17.33;14.23;;;15.50;99.90;;;;;;4973839;28;20456;-91
2021/06/26 01:45:22;;;;;;;15.10;13.50;;;15.50;99.90;;;;;;4977449;28;20449;-91
2021/06/26 01:47:58;;;;;;;16.57;13.00;;;15.50;99.90;;;;;;4978532;28;20950;-92
2021/06/26 01:50:27;;;;;;;14.47;13.07;;;15.40;99.90;;;;;;4978326;28;20530;-94
2021/06/26 01:52:55;;;;;;;15.33;13.27;;;15.40;99.90;;;;;;4978280;28;20479;-92
2021/06/26 01:55:22;;;;;;;13.90;12.43;;;15.40;99.90;;;;;;4977712;28;20455;-91
2021/06/26 01:57:49;;;;;;;14.77;12.50;;;15.40;99.90;;;;;;4982108;28;20456;-92
2021/06/26 02:00:18;;;;;;;15.77;12.90;;;15.30;99.90;;;;;;4972477;28;20540;-91
2021/06/26 02:02:47;;;;;;;13.50;12.20;;;15.20;99.90;;;;;;4982336;28;21678;-91
2021/06/26 02:05:17;;;;;;;13.40;12.00;;;15.10;99.90;;;;;;4974289;28;20440;-91
2021/06/26 02:07:45;;;;;;;13.93;12.63;;;15.00;99.90;;;;;;4973850;28;20463;-91
2021/06/26 02:10:14;;;;;;;13.47;12.17;;;15.00;99.90;;;;;;4994726;28;21008;-91
2021/06/26 02:12:40;;;;;;;14.33;12.93;;;15.00;99.90;;;;;;4982626;28;20517;-91
2021/06/26 02:15:07;;;;;;;14.80;13.30;;;14.90;99.90;;;;;;4981985;28;20466;-90
2021/06/26 02:17:33;;;;;;;13.93;12.57;;;14.90;99.90;;;;;;4995036;28;21000;-90
2021/06/26 02:19:58;;;;;;;14.13;12.80;;;14.90;99.90;;;;;;4971115;28;20468;-90
2021/06/26 02:22:26;;;;;;;13.00;11.70;;;14.90;99.90;;;;;;4986369;28;20851;-89
2021/06/26 02:27:40;;;;;;;12.13;10.77;;;14.90;99.90;;;;;;4994485;28;20447;-91
2021/06/26 02:30:07;;;;;;;13.70;10.20;;;14.90;99.90;;;;;;4978501;28;20470;-89
2021/06/26 02:32:33;;;;;;;12.33;11.10;;;14.80;99.90;;;;;;4977714;28;20291;-90
2021/06/26 02:35:14;;;;;;;11.40;9.90;;;14.70;99.90;;;;;;4970825;28;20457;-90
2021/06/26 02:37:40;;;;;;;12.03;10.83;;;14.60;99.90;;;;;;4977529;28;20446;-90
2021/06/26 02:40:08;;;;;;;11.57;10.47;;;14.60;99.90;;;;;;4981963;28;20491;-90
2021/06/26 02:42:33;;;;;;;12.80;11.50;;;14.50;99.90;;;;;;4979224;28;20220;-91
2021/06/26 02:44:59;;;;;;;13.47;11.83;;;14.60;99.90;;;;;;4999511;28;20591;-90
2021/06/26 02:47:25;;;;;;;12.30;10.60;;;14.60;99.90;;;;;;4978374;28;20562;-89
2021/06/26 02:49:50;;;;;;;12.73;11.43;;;14.60;99.90;;;;;;4977637;28;20575;-89
2021/06/26 02:52:17;;;;;;;12.03;10.70;;;14.70;99.90;;;;;;4977392;28;20747;-88
2021/06/26 02:54:43;;;;;;;12.97;11.77;;;14.80;99.90;;;;;;4982228;28;20197;-89
2021/06/26 02:57:09;;;;;;;14.03;12.50;;;14.80;99.90;;;;;;4985994;28;20821;-89
2021/06/26 02:59:35;;;;;;;15.87;12.60;;;14.60;99.90;;;;;;4979057;28;20447;-90
2021/06/26 03:02:02;;;;;;;13.37;12.00;;;14.50;99.90;;;;;;4990265;28;20467;-89
2021/06/26 03:04:27;;;;;;;13.27;10.67;;;14.50;99.90;;;;;;4982496;28;20208;-89
2021/06/26 03:06:53;;;;;;;18.80;13.00;;;14.40;99.90;;;;;;4980740;28;20619;-89
2021/06/26 03:09:18;;;;;;;18.70;11.20;;;14.40;99.90;;;;;;4979091;28;20181;-89
2021/06/26 03:11:44;;;;;;;13.90;12.00;;;14.30;99.90;;;;;;4980705;28;20213;-89
2021/06/26 03:14:10;;;;;;;13.00;11.40;;;14.30;99.90;;;;;;4980044;28;20193;-89
2021/06/26 03:16:36;;;;;;;13.43;10.80;;;14.30;99.90;;;;;;4978569;28;20597;-89
2021/06/26 03:19:02;;;;;;;13.50;11.47;;;14.20;99.90;;;;;;4980423;28;20207;-90
2021/06/26 03:21:27;;;;;;;12.30;10.30;;;14.20;99.90;;;;;;4973326;28;20201;-89
2021/06/26 03:24:17;;;;;;;12.77;10.93;;;14.20;99.90;;;;;;4975686;28;20273;-89
2021/06/26 03:26:46;;;;;;;17.23;12.30;;;14.20;99.90;;;;;;4997153;28;20216;-88
2021/06/26 03:29:12;;;;;;;15.73;10.70;;;14.20;99.90;;;;;;4979815;28;20524;-89
2021/06/26 03:31:38;;;;;;;15.07;11.70;;;14.20;99.90;;;;;;4993053;28;20224;-89
2021/06/26 03:34:07;;;;;;;14.57;11.23;;;14.10;99.90;;;;;;4976053;28;20189;-89
2021/06/26 03:36:51;;;;;;;11.90;10.70;;;13.90;99.90;;;;;;4972532;28;20507;-89
2021/06/26 03:39:37;;;;;;;11.23;10.13;;;14.00;99.90;;;;;;4981095;28;20849;-89
2021/06/26 03:42:03;;;;;;;13.53;10.53;;;14.10;99.90;;;;;;4978308;28;20459;-89
2021/06/26 03:44:29;;;;;;;16.47;11.87;;;14.20;99.90;;;;;;4977846;28;20436;-89
2021/06/26 03:46:55;;;;;;;20.13;14.77;;;14.30;99.90;;;;;;4966690;28;20460;-89
2021/06/26 03:49:21;;;;;;;26.27;17.53;;;14.40;99.90;;;;;;4980277;28;20216;-89
2021/06/26 03:51:58;;;;;;;59.53;19.83;;;14.40;99.90;;;;;;4975898;28;20572;-89
2021/06/26 03:54:24;;;;;;;27.60;19.23;;;14.50;99.90;;;;;;4961299;28;20191;-89
2021/06/26 03:56:49;;;;;;;58.50;19.10;;;14.50;99.90;;;;;;4993062;28;20439;-89
2021/06/26 03:59:38;;;;;;;107.17;20.73;;;14.60;99.90;;;;;;4978501;28;20287;-88
2021/06/26 04:02:07;;;;;;;80.43;18.60;;;14.70;99.90;;;;;;4976669;28;20217;-89
2021/06/26 04:04:36;;;;;;;92.47;19.80;;;14.60;99.90;;;;;;4974963;28;20451;-88
2021/06/26 04:07:03;;;;;;;34.73;16.60;;;14.60;99.90;;;;;;4973312;28;20476;-88
2021/06/26 04:09:29;;;;;;;38.27;17.80;;;14.70;99.90;;;;;;4977796;28;20700;-88
2021/06/26 04:11:55;;;;;;;20.40;16.40;;;14.80;99.90;;;;;;4970701;28;20487;-88
2021/06/26 04:14:21;;;;;;;24.80;18.30;;;14.80;99.90;;;;;;4993607;28;20185;-88
2021/06/26 04:16:47;;;;;;;22.03;17.37;;;14.90;99.90;;;;;;4969516;28;20708;-88
2021/06/26 04:19:15;;;;;;;27.80;18.23;;;15.00;99.90;;;;;;4984931;28;21465;-87
2021/06/26 04:21:42;;;;;;;28.83;16.27;;;15.10;99.90;;;;;;4973256;28;20227;-88
2021/06/26 04:24:10;;;;;;;20.80;16.57;;;15.10;99.90;;;;;;4978005;28;20828;-89
2021/06/26 04:26:37;;;;;;;18.60;15.83;;;15.20;99.90;;;;;;4964175;28;20484;-88
2021/06/26 04:29:03;;;;;;;17.30;15.00;;;15.30;99.90;;;;;;4950840;28;20446;-88
2021/06/26 04:31:29;;;;;;;15.60;13.77;;;15.40;99.90;;;;;;4985200;28;21005;-89
2021/06/26 04:34:07;;;;;;;15.60;13.73;;;15.40;99.90;;;;;;4980217;28;20185;-89
2021/06/26 04:36:33;;;;;;;22.27;14.57;;;15.40;99.90;;;;;;4986683;28;20200;-89
2021/06/26 04:38:59;;;;;;;16.70;14.33;;;15.50;99.90;;;;;;4984321;28;20458;-89
2021/06/26 04:41:27;;;;;;;20.07;15.03;;;15.50;99.90;;;;;;4976790;28;20193;-89
2021/06/26 04:43:53;;;;;;;24.10;14.60;;;15.50;99.90;;;;;;4984551;28;20530;-89
2021/06/26 04:46:24;;;;;;;31.90;15.13;;;15.60;99.90;;;;;;4984836;28;20829;-89
2021/06/26 04:48:50;;;;;;;25.43;14.33;;;15.60;99.90;;;;;;4996138;28;21167;-89
2021/06/26 04:51:18;;;;;;;34.50;16.57;;;15.50;99.90;;;;;;4984679;28;20863;-89
2021/06/26 04:53:45;;;;;;;28.33;15.63;;;15.40;99.90;;;;;;4981633;28;20463;-90
2021/06/26 04:56:11;;;;;;;31.73;17.37;;;15.50;99.90;;;;;;4998281;28;20572;-89
2021/06/26 04:58:36;;;;;;;30.40;18.03;;;15.40;99.90;;;;;;4979202;28;21049;-89
2021/06/26 05:01:03;;;;;;;25.20;17.87;;;15.50;99.90;;;;;;4980768;28;20971;-88
2021/06/26 05:03:31;;;;;;;22.07;17.97;;;15.50;99.90;;;;;;4982463;28;20300;-90
2021/06/26 05:06:00;;;;;;;21.77;17.43;;;15.50;99.90;;;;;;5001447;28;20530;-89
2021/06/26 05:08:26;;;;;;;23.50;18.27;;;15.50;99.90;;;;;;4979759;28;20452;-89
2021/06/26 05:10:51;;;;;;;21.33;18.57;;;15.60;99.90;;;;;;4980785;28;22379;-90
2021/06/26 05:13:17;;;;;;;29.33;20.77;;;15.60;99.90;;;;;;4980456;28;20486;-89
2021/06/26 05:15:48;;;;;;;25.83;19.90;;;15.60;99.90;;;;;;4972591;28;20204;-89
2021/06/26 05:21:35;;;;;;;20.83;18.33;;;15.70;99.90;;;;;;4995080;28;20460;-89
2021/06/26 05:24:00;;;;;;;25.80;19.80;;;15.90;99.90;;;;;;4968989;28;20628;-89
2021/06/26 05:26:32;;;;;;;27.00;20.30;;;16.00;99.90;;;;;;4981456;28;20447;-90
2021/06/26 05:29:05;;;;;;;26.80;20.00;;;16.00;99.90;;;;;;4999610;28;20204;-90
2021/06/26 05:31:55;;;;;;;;;;;;;;;;;;;;;
2021/06/26 05:34:48;;;;;;;22.60;20.17;;;16.40;99.90;;;;;;4991091;28;20456;-89
2021/06/26 05:37:25;;;;;;;21.10;18.80;;;16.50;99.90;;;;;;4991891;28;20984;-90
2021/06/26 05:39:53;;;;;;;22.70;19.03;;;16.60;99.90;;;;;;4998584;28;20448;-89
2021/06/26 05:42:24;;;;;;;20.87;18.67;;;16.80;99.90;;;;;;4978274;28;20204;-89
2021/06/26 05:45:14;;;;;;;23.93;20.10;;;16.90;99.90;;;;;;4976879;28;20468;-88
2021/06/26 05:47:58;;;;;;;21.70;19.30;;;16.90;99.90;;;;;;4996492;28;20483;-88
2021/06/26 05:53:04;;;;;;;20.53;18.37;;;17.20;99.90;;;;;;5034968;23;20495;-88
2021/06/26 05:56:01;;;;;;;22.73;20.33;;;17.20;99.90;;;;;;4965484;28;20550;-89
2021/06/26 05:58:39;;;;;;;23.97;19.57;;;17.20;99.90;;;;;;4961514;28;20567;-88
2021/06/26 06:01:31;;;;;;;22.73;20.27;;;17.20;99.90;;;;;;4973369;28;20452;-89
2021/06/26 06:03:56;;;;;;;21.53;19.00;;;17.30;99.90;;;;;;4977963;28;20973;-88
2021/06/26 06:06:35;;;;;;;21.57;19.27;;;17.20;99.90;;;;;;4976009;28;20453;-89
2021/06/26 06:09:14;;;;;;;21.83;19.40;;;16.90;99.90;;;;;;4973843;28;20563;-90
2021/06/26 06:12:02;;;;;;;;;;;;;;;;;;;;;
2021/06/26 06:27:58;;;;;;;20.10;17.43;;;17.90;99.90;;;;;;999706;26;20742;-89
2021/06/26 06:31:05;;;;;;;;;;;;;;;;;;;;;
2021/06/26 06:33:31;;;;;;;21.03;18.80;;;18.50;99.90;;;;;;5125090;23;20537;-86
2021/06/26 06:35:57;;;;;;;20.40;18.30;;;18.50;99.90;;;;;;4969613;28;21097;-86
2021/06/26 06:38:22;;;;;;;23.30;18.97;;;18.50;99.90;;;;;;4976927;28;20192;-86
2021/06/26 06:40:48;;;;;;;20.10;18.00;;;18.70;99.90;;;;;;4994593;28;20327;-87
2021/06/26 06:43:17;;;;;;;20.80;17.93;;;18.80;99.90;;;;;;4978479;28;20224;-87
2021/06/26 06:45:43;;;;;;;18.37;16.37;;;18.90;99.90;;;;;;4982383;28;20263;-87
2021/06/26 06:48:11;;;;;;;20.13;18.03;;;19.00;99.90;;;;;;4978956;28;20482;-88
2021/06/26 06:50:40;;;;;;;19.40;17.40;;;19.20;99.90;;;;;;4980927;28;20193;-87
2021/06/26 06:53:06;;;;;;;22.23;19.97;;;19.10;99.90;;;;;;4990279;28;20506;-88
2021/06/26 06:55:42;;;;;;;25.57;17.37;;;18.90;99.90;;;;;;4979041;28;20482;-88
2021/06/26 06:58:08;;;;;;;19.57;17.60;;;18.70;99.90;;;;;;4978127;28;20505;-89
2021/06/26 07:00:34;;;;;;;21.20;18.30;;;18.70;99.90;;;;;;4980537;28;20550;-89
2021/06/26 07:03:03;;;;;;;19.83;17.20;;;18.70;99.90;;;;;;4976367;28;20208;-89
2021/06/26 07:05:28;;;;;;;19.17;17.37;;;18.60;99.90;;;;;;4982278;28;20194;-89
2021/06/26 07:07:54;;;;;;;18.93;16.93;;;18.60;99.90;;;;;;4992218;28;20985;-89
2021/06/26 07:10:20;;;;;;;20.27;18.07;;;18.60;99.90;;;;;;4997849;28;20181;-89
2021/06/26 07:12:45;;;;;;;18.63;16.67;;;18.70;99.90;;;;;;4977212;28;20229;-89
2021/06/26 07:15:12;;;;;;;17.87;16.07;;;18.90;99.90;;;;;;4998042;28;20547;-87
2021/06/26 07:17:40;;;;;;;20.17;18.20;;;18.90;99.90;;;;;;4977758;28;20194;-89
2021/06/26 07:20:10;;;;;;;21.10;17.10;;;19.00;99.90;;;;;;4977945;28;20491;-89
2021/06/26 07:22:35;;;;;;;20.70;17.93;;;19.10;99.90;;;;;;4980331;28;20447;-89
2021/06/26 07:25:01;;;;;;;18.17;16.37;;;18.90;99.90;;;;;;4979289;28;21110;-89
2021/06/26 07:27:27;;;;;;;19.27;17.27;;;18.90;99.90;;;;;;4977953;28;20208;-89
2021/06/26 07:29:53;;;;;;;17.43;15.73;;;19.10;99.90;;;;;;4979777;28;20555;-90
2021/06/26 07:32:26;;;;;;;16.90;15.30;;;19.40;99.90;;;;;;4995578;28;20255;-89
2021/06/26 07:34:54;;;;;;;16.63;14.60;;;19.70;99.90;;;;;;4980201;28;20197;-89
2021/06/26 07:37:48;;;;;;;14.67;13.37;;;20.00;99.90;;;;;;4980192;28;20457;-91
2021/06/26 07:40:34;;;;;;;16.53;14.67;;;20.20;99.90;;;;;;4978722;28;20445;-90
2021/06/26 07:43:00;;;;;;;13.97;12.57;;;20.30;99.90;;;;;;4991626;28;20710;-90
2021/06/26 07:45:25;;;;;;;15.53;14.03;;;20.50;99.90;;;;;;4978845;28;20975;-91
2021/06/26 07:47:51;;;;;;;15.17;13.87;;;20.60;99.90;;;;;;4976322;28;20232;-91
2021/06/26 07:50:17;;;;;;;14.50;13.10;;;20.60;99.90;;;;;;4979116;28;20181;-92
2021/06/26 07:52:43;;;;;;;15.10;13.70;;;20.70;99.90;;;;;;4975796;28;20228;-94
2021/06/26 07:55:09;;;;;;;14.63;13.23;;;20.90;99.90;;;;;;4999835;28;20251;-92
2021/06/26 07:57:38;;;;;;;14.30;13.00;;;21.00;99.90;;;;;;4979667;28;20448;-93
2021/06/26 08:00:06;;;;;;;14.00;12.80;;;21.20;99.90;;;;;;4991619;28;20449;-92
2021/06/26 08:02:35;;;;;;;14.13;12.93;;;21.40;99.90;;;;;;4974888;28;20454;-90
2021/06/26 08:05:18;;;;;;;14.93;13.50;;;21.60;99.90;;;;;;4973954;28;20514;-90
2021/06/26 08:07:53;;;;;;;14.67;13.37;;;21.60;99.90;;;;;;4993744;28;20452;-91
2021/06/26 08:10:37;;;;;;;13.90;12.67;;;21.70;99.90;;;;;;4981766;28;20460;-91
2021/06/26 08:13:14;;;;;;;14.07;12.77;;;22.00;99.90;;;;;;4985635;28;20479;-91
2021/06/26 08:15:44;;;;;;;14.30;13.00;;;22.10;99.90;;;;;;4962185;28;20464;-92
2021/06/26 08:18:16;;;;;;;13.67;12.47;;;22.10;99.90;;;;;;4967371;28;20460;-91
2021/06/26 08:21:00;;;;;;;12.47;11.40;;;22.20;99.90;;;;;;4971636;28;20460;-91
2021/06/26 08:23:35;;;;;;;11.77;10.60;;;22.50;99.90;;;;;;4977673;28;20447;-90
2021/06/26 08:26:04;;;;;;;12.90;11.70;;;22.70;99.90;;;;;;4979055;28;20458;-91
2021/06/26 08:28:40;;;;;;;11.83;10.83;;;22.80;99.90;;;;;;4974905;28;20544;-91
2021/06/26 08:31:08;;;;;;;12.60;11.50;;;22.70;99.90;;;;;;4994915;28;20436;-91
2021/06/26 08:33:36;;;;;;;13.50;12.40;;;22.70;99.90;;;;;;4995446;28;20980;-92
2021/06/26 08:36:03;;;;;;;13.77;12.57;;;22.80;99.90;;;;;;4977835;28;20458;-92
2021/06/26 08:38:28;;;;;;;13.07;11.90;;;22.80;99.90;;;;;;4994825;28;20474;-91
2021/06/26 08:40:58;;;;;;;13.07;11.83;;;22.90;99.90;;;;;;4977271;28;20869;-90
2021/06/26 08:43:24;;;;;;;12.23;11.13;;;23.30;99.90;;;;;;4974887;28;20231;-91
2021/06/26 08:45:52;;;;;;;11.33;9.90;;;23.30;99.90;;;;;;4993243;28;22009;-90
2021/06/26 08:48:26;;;;;;;11.00;10.10;;;23.50;99.90;;;;;;4996040;28;20267;-91
2021/06/26 08:50:55;;;;;;;10.20;9.20;;;23.40;99.90;;;;;;4975127;28;20989;-91
2021/06/26 08:53:21;;;;;;;10.27;9.47;;;23.50;99.90;;;;;;4994807;28;21015;-90
2021/06/26 08:55:54;;;;;;;11.40;10.30;;;23.60;99.70;;;;;;4978191;28;20509;-90
2021/06/26 08:58:24;;;;;;;11.93;10.93;;;23.60;99.90;;;;;;4977354;28;20467;-90
2021/06/26 09:01:19;;;;;;;10.60;9.70;;;23.50;99.60;;;;;;4993914;28;20464;-91
2021/06/26 09:04:15;;;;;;;10.03;9.23;;;23.70;99.90;;;;;;4977968;28;20538;-91
2021/06/26 09:06:53;;;;;;;10.67;9.77;;;23.70;99.90;;;;;;4993267;28;20832;-92
2021/06/26 09:09:41;;;;;;;10.83;9.93;;;23.70;99.40;;;;;;4979855;28;20463;-92
2021/06/26 09:12:40;;;;;;;10.73;9.80;;;23.20;99.90;;;;;;4978739;28;21015;-91
2021/06/26 09:15:07;;;;;;;10.57;9.67;;;23.50;99.70;;;;;;4993311;28;21569;-91
2021/06/26 09:17:34;;;;;;;10.07;8.83;;;23.70;99.90;;;;;;4998223;28;20475;-91
2021/06/26 09:20:04;;;;;;;10.50;9.70;;;24.00;99.90;;;;;;4997147;28;21319;-90
2021/06/26 09:22:42;;;;;;;10.07;9.30;;;24.00;98.80;;;;;;4977494;28;20490;-89
2021/06/26 09:25:32;;;;;;;12.97;11.87;;;24.10;99.90;;;;;;4995159;28;20456;-90
2021/06/26 09:28:02;;;;;;;11.03;10.13;;;24.20;99.90;;;;;;4995637;28;20447;-90
2021/06/26 09:30:40;;;;;;;11.63;10.50;;;24.20;99.70;;;;;;4980181;28;20474;-89
2021/06/26 09:33:16;;;;;;;11.00;10.03;;;24.30;97.40;;;;;;4986102;28;20503;-89
2021/06/26 09:36:07;;;;;;;10.93;10.00;;;24.70;97.80;;;;;;4988987;28;20447;-90
2021/06/26 09:38:36;;;;;;;10.10;9.40;;;24.80;99.50;;;;;;4991356;28;20449;-90
2021/06/26 09:41:17;;;;;;;9.07;8.30;;;24.50;99.30;;;;;;4983833;28;20470;-90
2021/06/26 09:43:47;;;;;;;10.57;9.67;;;24.30;99.90;;;;;;4992595;28;20455;-90
2021/06/26 09:46:56;;;;;;;11.80;10.90;;;24.40;99.90;;;;;;4992873;28;20459;-89
2021/06/26 09:49:33;;;;;;;9.97;9.20;;;24.30;99.00;;;;;;4991719;28;20455;-89
2021/06/26 10:38:21;;;;;;;9.70;8.90;;;25.30;96.70;;;;;;4968911;28;20598;-92
2021/06/26 10:40:52;;;;;;;21.93;12.73;;;25.30;98.70;;;;;;4966950;28;20584;-91
2021/06/26 10:43:20;;;;;;;9.10;8.50;;;25.70;98.20;;;;;;4955656;28;20490;-95
2021/06/26 10:45:49;;;;;;;9.23;8.53;;;25.40;97.50;;;;;;4951656;28;20487;-92
2021/06/26 10:48:25;;;;;;;9.87;8.90;;;25.50;98.40;;;;;;4984619;28;20543;-92
2021/06/26 10:50:54;;;;;;;8.70;8.00;;;25.80;96.80;;;;;;4969970;28;20468;-91
2021/06/26 10:53:59;;;;;;;7.87;7.33;;;26.30;97.20;;;;;;4970944;28;20911;-93
2021/06/26 10:56:33;;;;;;;8.60;8.00;;;26.50;93.60;;;;;;4954772;28;20454;-92
2021/06/26 10:59:08;;;;;;;8.67;8.03;;;26.10;96.30;;;;;;4971220;28;20544;-93
2021/06/26 11:01:54;;;;;;;7.40;6.90;;;26.50;96.50;;;;;;4969631;28;20460;-91
2021/06/26 11:04:24;;;;;;;7.80;7.30;;;26.70;95.60;;;;;;4968938;28;21056;-92
2021/06/26 11:07:04;;;;;;;8.27;7.57;;;26.70;95.90;;;;;;4951578;28;21005;-92
2021/06/26 11:09:43;;;;;;;7.87;7.27;;;26.60;94.60;;;;;;4952802;28;20457;-94
2021/06/26 11:12:27;;;;;;;7.97;7.40;;;26.20;94.40;;;;;;4966605;28;20483;-93
2021/06/26 11:14:56;;;;;;;8.10;7.50;;;25.40;95.60;;;;;;4942061;28;20453;-92
2021/06/26 11:17:33;;;;;;;8.07;7.57;;;25.10;96.00;;;;;;4949516;28;20460;-92
2021/06/26 11:19:58;;;;;;;7.07;6.60;;;24.80;96.70;;;;;;4970947;28;20550;-91
2021/06/26 11:22:45;;;;;;;7.67;7.07;;;24.80;96.40;;;;;;4952023;28;20460;-92
2021/06/26 11:25:16;;;;;;;6.53;6.07;;;25.20;96.30;;;;;;4953135;28;20213;-91
2021/06/26 11:27:45;;;;;;;6.83;6.43;;;25.30;94.40;;;;;;4952533;28;20460;-93
2021/06/26 11:30:36;;;;;;;7.57;6.87;;;25.50;94.90;;;;;;4954312;28;20504;-93
2021/06/26 11:33:12;;;;;;;7.10;6.60;;;26.00;95.80;;;;;;4950769;28;20504;-94
2021/06/26 11:35:54;;;;;;;6.97;6.43;;;25.80;95.10;;;;;;4957497;28;20461;-93
2021/06/26 11:38:20;;;;;;;7.60;7.00;;;25.70;96.20;;;;;;4964188;28;20468;-93
2021/06/26 11:40:51;;;;;;;7.67;7.17;;;25.90;96.20;;;;;;4969574;28;20461;-93
2021/06/26 11:43:16;;;;;;;6.57;6.17;;;26.30;94.50;;;;;;4951051;28;20205;-94
2021/06/26 11:45:47;;;;;;;6.80;6.30;;;26.10;94.10;;;;;;4950001;28;20855;-94
2021/06/26 11:48:14;;;;;;;7.90;7.20;;;25.80;95.60;;;;;;4946733;28;20292;-93
2021/06/26 11:50:52;;;;;;;7.73;7.03;;;25.70;94.90;;;;;;4950997;28;20461;-93
2021/06/26 11:53:25;;;;;;;6.70;6.20;;;26.50;95.50;;;;;;4984871;28;20569;-94
2021/06/26 11:55:58;;;;;;;6.40;6.00;;;27.10;93.60;;;;;;4949786;28;20468;-93
2021/06/26 11:58:43;;;;;;;6.77;6.23;;;27.40;92.90;;;;;;4953761;28;20468;-94
2021/06/26 12:01:13;;;;;;;5.93;5.53;;;27.40;92.60;;;;;;4952860;28;20456;-91
2021/06/26 12:04:03;;;;;;;6.70;6.20;;;27.30;91.50;;;;;;4964478;28;20519;-93
2021/06/26 12:13:42;;;;;;;6.40;6.00;;;27.80;91.00;;;;;;6014000;23;20460;-93
2021/06/26 12:16:19;;;;;;;6.60;5.90;;;27.30;92.30;;;;;;4969627;28;21142;-89
2021/06/26 12:22:49;;;;;;;;;;;;;;;;;;;;;
2021/06/26 15:53:09;;;;;;;4.70;4.50;;;28.50;63.70;;;;;;4968170;28;20874;-91
2021/06/26 15:56:43;;;;;;;5.20;4.70;;;28.90;65.30;;;;;;4986357;28;22005;-91
2021/06/26 16:53:38;;;;;;;4.55;4.35;;;39.30;38.60;;;;;;4964532;28;20240;-89
2021/06/26 17:03:51;;;;;;;5.40;5.00;;;38.30;41.00;;;;;;4955230;28;20245;-92
2021/06/26 17:06:17;;;;;;;5.60;5.30;;;37.90;42.10;;;;;;4955712;28;20213;-92
2021/06/26 17:08:43;;;;;;;5.90;5.50;;;35.40;44.10;;;;;;4957222;28;20445;-90
2021/06/26 17:11:09;;;;;;;5.40;5.10;;;32.20;51.00;;;;;;4970277;28;20198;-91
2021/06/26 17:13:36;;;;;;;6.43;5.93;;;30.30;55.60;;;;;;4954189;28;20660;-90
2021/06/26 17:16:02;;;;;;;6.13;5.73;;;28.90;58.80;;;;;;4970541;28;21179;-90
2021/06/26 17:18:28;;;;;;;6.37;5.97;;;28.10;62.20;;;;;;4957473;28;20450;-90
2021/06/26 17:20:54;;;;;;;6.47;5.97;;;27.10;65.20;;;;;;4981718;23;20455;-91
2021/06/26 17:23:39;;;;;;;6.67;6.17;;;26.40;68.30;;;;;;4990615;28;20194;-92
2021/06/26 17:26:27;;;;;;;6.50;6.00;;;26.00;70.50;;;;;;4972582;28;20494;-91
2021/06/26 17:28:55;;;;;;;6.50;6.00;;;25.60;74.10;;;;;;4985454;28;20464;-92
2021/06/26 17:31:26;;;;;;;6.70;6.20;;;25.50;74.70;;;;;;4991151;28;20747;-92
2021/06/26 17:33:53;;;;;;;7.90;6.47;;;26.10;71.90;;;;;;4972303;28;20481;-89
2021/06/26 17:36:20;;;;;;;7.03;6.53;;;26.10;72.10;;;;;;4989273;28;20454;-93
2021/06/26 17:38:46;;;;;;;7.23;6.73;;;25.80;75.40;;;;;;4972441;28;20469;-82
2021/06/26 17:41:13;;;;;;;7.10;6.60;;;26.00;75.80;;;;;;5046949;23;21025;-82
2021/06/26 17:43:42;;;;;;;6.80;6.30;;;26.40;80.70;;;;;;4954827;28;21319;-83
2021/06/26 17:46:10;;;;;;;5.93;5.53;;;26.70;79.70;;;;;;4970579;28;20528;-82
2021/06/26 17:48:36;;;;;;;6.17;5.67;;;26.60;79.70;;;;;;4952559;28;20458;-83
2021/06/26 17:51:03;;;;;;;6.57;6.07;;;26.50;80.60;;;;;;4948589;28;20453;-83
2021/06/26 17:53:36;;;;;;;6.47;6.07;;;26.50;81.80;;;;;;4955256;28;20482;-83
2021/06/26 17:56:04;;;;;;;8.97;8.03;;;26.40;80.30;;;;;;4970381;28;20194;-82
2021/06/26 17:58:32;;;;;;;7.30;6.37;;;26.30;83.30;;;;;;4952360;28;20555;-82
2021/06/26 18:00:59;;;;;;;8.07;7.50;;;26.80;84.00;;;;;;4954177;28;20445;-83
2021/06/26 18:03:26;;;;;;;7.20;6.77;;;27.70;89.40;;;;;;4955175;28;21394;-82
2021/06/26 18:05:57;;;;;;;7.50;6.90;;;27.90;85.10;;;;;;4956421;28;20205;-82
2021/06/26 18:08:23;;;;;;;7.80;7.20;;;28.30;83.40;;;;;;4952756;28;21172;-83
2021/06/26 18:10:52;;;;;;;7.37;6.77;;;28.50;82.20;;;;;;4952185;28;20453;-83
2021/06/26 18:13:18;;;;;;;7.20;6.70;;;28.40;83.60;;;;;;4950844;28;20486;-83
2021/06/26 18:15:47;;;;;;;6.43;6.03;;;28.00;84.30;;;;;;4952941;28;20457;-83
2021/06/26 18:18:15;;;;;;;6.70;6.20;;;27.40;82.70;;;;;;4964567;28;20234;-83
2021/06/26 18:20:41;;;;;;;6.60;6.10;;;26.50;86.30;;;;;;4971841;28;20462;-83
2021/06/26 18:23:06;;;;;;;7.07;6.53;;;25.60;89.20;;;;;;4948775;28;20469;-83
2021/06/26 18:25:32;;;;;;;6.87;6.47;;;24.90;90.60;;;;;;4952811;28;20194;-83
2021/06/26 18:27:58;;;;;;;8.47;7.77;;;24.50;91.90;;;;;;4949362;28;20644;-83
2021/06/26 18:30:24;;;;;;;7.87;7.07;;;24.00;92.10;;;;;;4968776;28;20209;-83
2021/06/26 18:32:52;;;;;;;7.47;6.97;;;23.70;93.50;;;;;;4953490;28;20831;-83
2021/06/26 18:35:18;;;;;;;7.50;7.00;;;23.40;97.40;;;;;;4957837;28;20273;-83
2021/06/26 18:37:45;;;;;;;7.50;7.00;;;23.20;99.60;;;;;;4951476;28;20982;-83
2021/06/26 18:40:14;;;;;;;7.80;7.27;;;23.00;99.90;;;;;;4951156;28;20446;-82
2021/06/26 18:42:41;;;;;;;7.00;6.50;;;22.80;99.90;;;;;;4952145;28;20493;-83
2021/06/26 18:45:08;;;;;;;8.03;7.43;;;22.80;99.90;;;;;;4952016;28;20441;-83